Time;durP1;ratioP1;P1;durP2;ratioP2;P2;SDS_P1;SDS_P2;PMS_P1;PMS_P2;Temp;Humidity;BMP_temperature;BMP_pressure;BME280_temperature;BME280_humidity;BME280_pressure;Samples;Min_cycle;Max_cycle;Signal;HPM_P1;HPM_P2
2023/05/10 00:03:19;;;;;;;1.17;0.75;;;;;;;;;;5011827;28;20038;-62
2023/05/10 00:06:39;;;;;;;1.30;0.65;;;;;;;;;;4997857;28;20380;-61
2023/05/10 00:10:08;;;;;;;1.52;0.95;;;;;;;;;;5008099;28;20418;-61
2023/05/10 00:13:27;;;;;;;1.70;0.85;;;;;;;;;;4948429;28;20481;-57
2023/05/10 00:16:59;;;;;;;1.63;0.90;;;;;;;;;;5015568;28;20117;-63
2023/05/10 00:23:37;;;;;;;1.50;1.00;;;;;;;;;;5008952;28;20111;-60
2023/05/10 00:26:57;;;;;;;1.35;0.98;;;;;;;;;;5011025;28;20044;-61
2023/05/10 00:30:30;;;;;;;1.52;0.90;;;;;;;;;;4956960;28;20046;-61
2023/05/10 00:36:52;;;;;;;;;;;;;;;;;;4954485;28;20061;-63
2023/05/10 00:40:28;;;;;;;1.15;0.80;;;;;;;;;;4982009;28;19937;-64
2023/05/10 00:43:51;;;;;;;1.20;0.90;;;;;;;;;;5018099;28;20075;-62
2023/05/10 00:54:12;;;;;;;1.50;1.00;;;;;;;;;;4976882;28;20042;-63
2023/05/10 00:57:33;;;;;;;1.70;0.77;;;;;;;;;;5033135;28;20128;-63
2023/05/10 01:01:05;;;;;;;1.73;1.00;;;;;;;;;;4948417;28;20054;-63
2023/05/10 01:04:31;;;;;;;1.20;0.90;;;;;;;;;;4965856;28;20883;-63
2023/05/10 01:07:50;;;;;;;1.52;1.10;;;;;;;;;;4995775;28;20049;-59
2023/05/10 01:11:05;;;;;;;2.30;1.10;;;;;;;;;;4984516;28;20445;-61
2023/05/10 01:14:29;;;;;;;1.23;0.82;;;;;;;;;;4989390;28;20033;-62
2023/05/10 01:18:04;;;;;;;1.42;0.90;;;;;;;;;;4980862;28;20131;-62
2023/05/10 01:21:36;;;;;;;1.73;1.00;;;;;;;;;;4977481;28;20765;-62
2023/05/10 01:24:54;;;;;;;1.65;1.00;;;;;;;;;;4979128;28;20458;-60
2023/05/10 01:28:04;;;;;;;1.58;0.93;;;;;;;;;;4999286;28;20048;-61
2023/05/10 01:31:22;;;;;;;2.13;1.00;;;;;;;;;;4992937;28;20577;-62
2023/05/10 01:34:42;;;;;;;1.10;0.80;;;;;;;;;;5037403;28;20143;-62
2023/05/10 01:38:13;;;;;;;1.25;1.00;;;;;;;;;;4969016;28;20128;-61
2023/05/10 01:41:46;;;;;;;1.23;0.73;;;;;;;;;;4978892;28;20541;-61
2023/05/10 01:45:19;;;;;;;0.98;0.80;;;;;;;;;;4986819;28;20097;-61
2023/05/10 01:48:38;;;;;;;1.75;1.23;;;;;;;;;;4979864;28;20030;-61
2023/05/10 01:54:58;;;;;;;1.50;1.10;;;;;;;;;;4968197;28;20419;-58
2023/05/10 01:57:45;;;;;;;1.52;0.90;;;;;;;;;;4983216;28;20625;-64
2023/05/10 02:04:15;;;;;;;1.80;0.90;;;;;;;;;;4995663;28;20033;-61
2023/05/10 02:07:42;;;;;;;1.27;0.90;;;;;;;;;;4993144;28;20064;-63
2023/05/10 02:11:01;;;;;;;1.30;0.98;;;;;;;;;;5000094;28;20172;-62
2023/05/10 02:14:26;;;;;;;1.75;0.90;;;;;;;;;;4955838;28;20066;-62
2023/05/10 02:20:42;;;;;;;1.67;0.98;;;;;;;;;;4998560;28;20295;-60
2023/05/10 02:24:02;;;;;;;1.10;0.77;;;;;;;;;;4981589;28;20062;-61
2023/05/10 02:27:33;;;;;;;1.30;0.93;;;;;;;;;;4974909;28;20037;-63
2023/05/10 02:30:53;;;;;;;1.40;0.90;;;;;;;;;;4972713;28;20112;-60
2023/05/10 02:34:31;;;;;;;1.70;1.23;;;;;;;;;;4996401;28;20030;-59
2023/05/10 02:37:54;;;;;;;1.42;1.10;;;;;;;;;;4998616;28;20043;-62
2023/05/10 02:41:12;;;;;;;1.70;1.10;;;;;;;;;;5004962;28;20587;-62
2023/05/10 02:44:10;;;;;;;2.05;1.17;;;;;;;;;;4959216;28;20039;-63
2023/05/10 02:47:03;;;;;;;1.58;1.10;;;;;;;;;;4994155;28;20034;-62
2023/05/10 02:49:54;;;;;;;1.60;1.17;;;;;;;;;;4974055;28;20038;-60
2023/05/10 02:53:07;;;;;;;3.60;1.17;;;;;;;;;;5003388;28;20026;-62
2023/05/10 02:56:07;;;;;;;2.08;1.10;;;;;;;;;;4985102;28;20499;-61
2023/05/10 02:59:00;;;;;;;1.48;1.00;;;;;;;;;;4987612;28;20156;-63
2023/05/10 03:01:56;;;;;;;1.55;1.13;;;;;;;;;;4995326;28;20502;-62
2023/05/10 03:04:59;;;;;;;1.63;1.10;;;;;;;;;;5003663;28;20046;-59
2023/05/10 03:08:04;;;;;;;1.60;0.95;;;;;;;;;;5002478;28;20374;-57
2023/05/10 03:11:14;;;;;;;1.38;1.00;;;;;;;;;;4982127;28;20038;-60
2023/05/10 03:14:28;;;;;;;1.52;1.10;;;;;;;;;;4989932;28;20112;-61
2023/05/10 03:17:31;;;;;;;1.35;0.90;;;;;;;;;;5002105;28;20069;-64
2023/05/10 03:20:24;;;;;;;1.33;1.00;;;;;;;;;;4977958;28;20137;-62
2023/05/10 03:23:24;;;;;;;1.33;0.90;;;;;;;;;;5004365;28;20105;-59
2023/05/10 03:26:28;;;;;;;1.75;1.10;;;;;;;;;;5000794;28;20034;-65
2023/05/10 03:29:19;;;;;;;1.77;1.05;;;;;;;;;;5002649;28;20271;-62
2023/05/10 03:32:14;;;;;;;1.70;1.20;;;;;;;;;;4981719;28;20087;-60
2023/05/10 03:35:08;;;;;;;2.13;1.13;;;;;;;;;;4981236;28;20050;-60
2023/05/10 03:38:04;;;;;;;1.33;1.00;;;;;;;;;;5001282;28;20095;-63
2023/05/10 03:40:53;;;;;;;2.17;1.17;;;;;;;;;;5001530;28;20128;-64
2023/05/10 03:43:46;;;;;;;1.42;1.13;;;;;;;;;;5003052;28;20083;-58
2023/05/10 03:46:40;;;;;;;1.50;1.20;;;;;;;;;;4996352;28;20044;-57
2023/05/10 03:49:40;;;;;;;1.73;1.10;;;;;;;;;;4988035;28;20059;-62
2023/05/10 03:52:52;;;;;;;1.70;1.05;;;;;;;;;;4992881;28;20269;-63
2023/05/10 03:59:07;;;;;;;1.50;1.23;;;;;;;;;;4980405;28;20088;-57
2023/05/10 04:02:01;;;;;;;1.35;1.02;;;;;;;;;;4992219;28;20116;-63
2023/05/10 04:04:57;;;;;;;2.85;1.15;;;;;;;;;;5003644;28;20054;-62
2023/05/10 04:08:07;;;;;;;2.05;1.30;;;;;;;;;;5004771;28;20046;-64
2023/05/10 04:11:06;;;;;;;1.48;1.13;;;;;;;;;;4975193;28;20069;-61
2023/05/10 04:14:03;;;;;;;1.55;0.90;;;;;;;;;;4989596;28;20121;-61
2023/05/10 04:17:06;;;;;;;1.90;1.20;;;;;;;;;;5003231;28;20033;-64
2023/05/10 04:20:15;;;;;;;1.95;1.17;;;;;;;;;;4994160;28;20061;-64
2023/05/10 04:23:16;;;;;;;1.48;1.20;;;;;;;;;;4990347;28;20035;-58
2023/05/10 04:29:28;;;;;;;1.63;1.13;;;;;;;;;;5002913;28;20057;-64
2023/05/10 04:32:22;;;;;;;1.77;1.23;;;;;;;;;;4982272;28;20491;-72
2023/05/10 04:35:28;;;;;;;1.85;0.90;;;;;;;;;;4999040;28;20129;-58
2023/05/10 04:38:23;;;;;;;1.77;1.10;;;;;;;;;;4984125;28;20582;-58
2023/05/10 04:41:44;;;;;;;1.70;1.30;;;;;;;;;;4986152;28;20493;-61
2023/05/10 04:45:16;;;;;;;1.85;1.10;;;;;;;;;;5004817;28;20061;-58
2023/05/10 04:51:55;;;;;;;2.45;1.70;;;;;;;;;;4949432;28;20461;-60
2023/05/10 04:55:24;;;;;;;3.83;1.63;;;;;;;;;;4943600;28;20042;-61
2023/05/10 05:02:04;;;;;;;3.38;1.50;;;;;;;;;;4976562;28;20057;-62
2023/05/10 05:08:27;;;;;;;3.00;1.33;;;;;;;;;;4931799;28;20042;-62
2023/05/10 05:11:46;;;;;;;2.63;1.20;;;;;;;;;;4935343;28;20037;-56
2023/05/10 05:17:59;;;;;;;3.28;1.60;;;;;;;;;;4992976;28;20057;-62
2023/05/10 05:23:57;;;;;;;3.50;1.80;;;;;;;;;;4998677;28;20277;-62
2023/05/10 05:26:40;;;;;;;;;;;;;;;;;;4983212;28;20050;-60
2023/05/10 05:46:24;;;;;;;3.03;1.85;;;;;;;;;;4943472;28;20597;-60
2023/05/10 05:53:20;;;;;;;3.70;2.22;;;;;;;;;;4988491;28;20045;-62
2023/05/10 05:56:50;;;;;;;3.03;2.05;;;;;;;;;;4926656;28;20548;-60
2023/05/10 06:00:10;;;;;;;3.33;2.05;;;;;;;;;;4954000;28;20042;-60
2023/05/10 06:06:53;;;;;;;3.60;1.83;;;;;;;;;;4969596;28;20053;-61
2023/05/10 06:39:03;;;;;;;2.83;2.30;;;;;;;;;;4988699;28;20056;-58
2023/05/10 06:42:27;;;;;;;3.78;2.00;;;;;;;;;;4983648;28;20181;-58
2023/05/10 06:58:47;;;;;;;3.92;2.30;;;;;;;;;;4979156;28;20059;-62
2023/05/10 07:21:12;;;;;;;3.90;2.40;;;;;;;;;;5005625;28;20048;-63
2023/05/10 07:30:41;;;;;;;2.70;2.30;;;;;;;;;;4979341;28;20045;-62
2023/05/10 07:34:03;;;;;;;4.95;2.50;;;;;;;;;;5018949;28;20069;-55
2023/05/10 07:43:24;;;;;;;3.97;2.50;;;;;;;;;;4985501;28;20077;-62
2023/05/10 07:50:11;;;;;;;4.35;2.55;;;;;;;;;;5011006;28;20782;-59
2023/05/10 07:59:38;;;;;;;3.47;2.72;;;;;;;;;;5020055;28;20043;-61
2023/05/10 08:02:41;;;;;;;4.18;2.50;;;;;;;;;;4999278;28;20099;-60
2023/05/10 08:27:42;;;;;;;4.63;3.00;;;;;;;;;;5001076;28;20516;-58
2023/05/10 08:49:53;;;;;;;4.75;3.50;;;;;;;;;;4951173;28;20049;-63
2023/05/10 08:56:40;;;;;;;3.90;2.92;;;;;;;;;;4964049;28;20049;-63
2023/05/10 08:59:43;;;;;;;4.25;3.40;;;;;;;;;;4960965;28;20047;-61
2023/05/10 09:02:45;;;;;;;4.15;3.08;;;;;;;;;;4983150;28;20096;-62
2023/05/10 09:05:55;;;;;;;3.97;3.13;;;;;;;;;;4996019;28;20317;-63
2023/05/10 09:09:08;;;;;;;5.63;3.00;;;;;;;;;;4983943;28;20061;-63
2023/05/10 09:12:23;;;;;;;4.70;3.25;;;;;;;;;;4974783;28;20552;-65
2023/05/10 09:15:39;;;;;;;4.47;3.03;;;;;;;;;;4989372;28;20149;-63
2023/05/10 09:18:49;;;;;;;5.47;3.42;;;;;;;;;;4961577;28;20069;-58
2023/05/10 09:22:00;;;;;;;4.72;3.20;;;;;;;;;;4949125;28;20043;-57
2023/05/10 09:25:12;;;;;;;5.50;3.05;;;;;;;;;;4973525;28;20030;-65
2023/05/10 09:28:17;;;;;;;3.58;2.60;;;;;;;;;;4979740;28;20518;-61
2023/05/10 09:34:27;;;;;;;5.00;3.03;;;;;;;;;;4995650;28;20053;-61
2023/05/10 09:37:46;;;;;;;6.85;2.97;;;;;;;;;;4964873;28;20068;-60
2023/05/10 09:40:54;;;;;;;4.72;3.03;;;;;;;;;;4970242;28;20054;-61
2023/05/10 09:43:59;;;;;;;4.50;3.28;;;;;;;;;;4975479;28;20498;-64
2023/05/10 09:50:24;;;;;;;5.25;3.40;;;;;;;;;;4981397;28;20379;-60
2023/05/10 09:53:27;;;;;;;3.65;2.90;;;;;;;;;;4995558;28;20033;-61
2023/05/10 09:56:28;;;;;;;4.93;3.55;;;;;;;;;;4976852;28;20148;-61
2023/05/10 09:59:41;;;;;;;3.97;3.15;;;;;;;;;;5003879;28;20069;-65
2023/05/10 10:03:03;;;;;;;5.15;3.28;;;;;;;;;;4987049;28;20133;-63
2023/05/10 10:06:05;;;;;;;6.68;3.58;;;;;;;;;;4999299;28;20013;-64
2023/05/10 10:09:08;;;;;;;3.78;2.95;;;;;;;;;;5000865;28;20266;-60
2023/05/10 10:12:19;;;;;;;3.92;2.90;;;;;;;;;;5006463;28;20287;-63
2023/05/10 10:18:29;;;;;;;4.57;3.40;;;;;;;;;;4981616;28;20110;-64
2023/05/10 10:21:34;;;;;;;3.75;3.35;;;;;;;;;;4992538;28;20040;-63
2023/05/10 10:24:37;;;;;;;4.18;3.30;;;;;;;;;;5011493;28;20044;-63
2023/05/10 10:27:56;;;;;;;4.25;3.20;;;;;;;;;;5003643;28;20085;-61
2023/05/10 10:30:59;;;;;;;3.58;3.10;;;;;;;;;;4980525;28;20065;-63
2023/05/10 10:34:06;;;;;;;4.68;3.40;;;;;;;;;;4968128;28;20520;-63
2023/05/10 10:37:26;;;;;;;5.28;3.20;;;;;;;;;;5008907;28;20124;-60
2023/05/10 10:44:08;;;;;;;3.83;3.03;;;;;;;;;;4960771;28;20053;-58
2023/05/10 10:50:48;;;;;;;3.83;3.25;;;;;;;;;;4955151;28;20055;-62
2023/05/10 10:57:44;;;;;;;5.72;3.67;;;;;;;;;;5015919;28;20049;-62
2023/05/10 11:01:25;;;;;;;4.70;3.65;;;;;;;;;;5007235;28;20521;-62
2023/05/10 11:04:46;;;;;;;4.32;3.10;;;;;;;;;;5004440;28;20437;-62
2023/05/10 11:11:24;;;;;;;6.07;4.20;;;;;;;;;;4961499;28;20097;-61
2023/05/10 11:14:42;;;;;;;3.80;3.17;;;;;;;;;;5011987;28;20033;-59
2023/05/10 11:24:08;;;;;;;3.80;3.40;;;;;;;;;;5006872;28;20071;-62
2023/05/10 11:27:07;;;;;;;6.57;3.80;;;;;;;;;;5000155;28;20042;-60
2023/05/10 11:36:59;;;;;;;6.28;3.80;;;;;;;;;;4942244;28;20237;-60
2023/05/10 11:39:53;;;;;;;4.68;3.70;;;;;;;;;;4992043;28;20046;-58
2023/05/10 11:42:47;;;;;;;4.75;3.58;;;;;;;;;;4981421;28;20083;-59
2023/05/10 11:46:03;;;;;;;6.43;4.07;;;;;;;;;;4974054;28;20192;-59
2023/05/10 11:49:20;;;;;;;6.57;3.45;;;;;;;;;;4980869;28;26070;-61
2023/05/10 11:55:45;;;;;;;7.35;3.80;;;;;;;;;;4935858;28;20593;-59
2023/05/10 11:59:04;;;;;;;4.85;3.70;;;;;;;;;;4986881;28;20045;-60
2023/05/10 12:09:11;;;;;;;4.90;3.80;;;;;;;;;;4998745;28;20040;-59
2023/05/10 12:22:13;;;;;;;5.10;3.67;;;;;;;;;;4948154;28;20052;-60
2023/05/10 12:35:06;;;;;;;3.90;3.50;;;;;;;;;;5019523;28;21061;-61
2023/05/10 12:42:03;;;;;;;5.72;3.90;;;;;;;;;;4985703;28;20037;-61
2023/05/10 12:45:20;;;;;;;4.80;3.95;;;;;;;;;;4973199;28;20031;-60
2023/05/10 12:54:49;;;;;;;4.85;4.00;;;;;;;;;;4981906;28;20152;-60
2023/05/10 13:01:39;;;;;;;4.55;3.92;;;;;;;;;;4937012;28;20098;-62
2023/05/10 13:04:56;;;;;;;4.90;3.67;;;;;;;;;;5001684;28;20072;-63
2023/05/10 13:08:23;;;;;;;4.85;3.80;;;;;;;;;;4978875;28;20033;-62
2023/05/10 13:20:59;;;;;;;4.40;3.80;;;;;;;;;;4959353;28;20934;-62
2023/05/10 13:30:49;;;;;;;5.28;3.60;;;;;;;;;;4925529;28;20067;-58
2023/05/10 13:41:02;;;;;;;4.88;3.92;;;;;;;;;;4942815;28;20073;-62
2023/05/10 13:44:22;;;;;;;5.00;4.20;;;;;;;;;;4965652;28;20432;-61
2023/05/10 13:57:57;;;;;;;5.00;4.15;;;;;;;;;;4947538;28;20112;-59
2023/05/10 14:01:16;;;;;;;4.95;3.75;;;;;;;;;;5002824;28;20131;-60
2023/05/10 14:14:37;;;;;;;4.38;3.97;;;;;;;;;;4985873;28;20529;-58
2023/05/10 14:20:52;;;;;;;4.38;3.75;;;;;;;;;;4992068;28;20164;-59
2023/05/10 14:30:33;;;;;;;5.20;3.95;;;;;;;;;;4956858;28;20052;-61
2023/05/10 14:55:31;;;;;;;5.32;4.20;;;;;;;;;;5001033;28;20164;-60
2023/05/10 15:01:56;;;;;;;4.10;3.70;;;;;;;;;;4999854;28;20107;-60
2023/05/10 15:05:16;;;;;;;5.43;3.85;;;;;;;;;;4944728;28;20524;-61
2023/05/10 15:08:13;;;;;;;5.15;3.40;;;;;;;;;;4998797;28;20118;-60
2023/05/10 15:11:05;;;;;;;4.35;3.90;;;;;;;;;;4999815;28;20036;-59
2023/05/10 15:14:03;;;;;;;5.18;3.72;;;;;;;;;;5002640;28;20048;-60
2023/05/10 15:16:57;;;;;;;4.95;3.95;;;;;;;;;;5004598;28;20066;-59
2023/05/10 15:19:55;;;;;;;4.95;3.75;;;;;;;;;;4997703;28;20045;-59
2023/05/10 15:22:59;;;;;;;5.83;3.50;;;;;;;;;;4998756;28;20042;-60
2023/05/10 15:25:59;;;;;;;5.60;4.03;;;;;;;;;;4986856;28;20046;-61
2023/05/10 15:28:55;;;;;;;4.68;3.42;;;;;;;;;;5007844;28;20067;-58
2023/05/10 15:31:56;;;;;;;6.35;3.38;;;;;;;;;;5015758;28;20527;-60
2023/05/10 15:34:57;;;;;;;5.60;3.58;;;;;;;;;;4999698;28;20049;-60
2023/05/10 15:37:51;;;;;;;4.70;3.80;;;;;;;;;;4999512;28;20046;-58
2023/05/10 15:40:49;;;;;;;5.07;3.40;;;;;;;;;;5009000;28;20055;-61
2023/05/10 15:43:51;;;;;;;5.47;3.65;;;;;;;;;;5019871;28;20079;-59
2023/05/10 15:46:49;;;;;;;4.78;3.13;;;;;;;;;;5009639;28;20528;-58
2023/05/10 15:49:48;;;;;;;4.97;3.53;;;;;;;;;;4991045;28;20036;-60
2023/05/10 15:52:46;;;;;;;4.00;3.40;;;;;;;;;;5003691;28;20542;-59
2023/05/10 15:55:43;;;;;;;3.55;3.25;;;;;;;;;;5013750;28;20493;-59
2023/05/10 15:58:43;;;;;;;4.90;3.33;;;;;;;;;;5014484;28;20176;-59
2023/05/10 16:01:43;;;;;;;4.07;3.30;;;;;;;;;;4997538;28;20620;-60
2023/05/10 16:04:44;;;;;;;3.80;3.05;;;;;;;;;;4984696;28;20176;-60
2023/05/10 16:07:41;;;;;;;6.65;3.60;;;;;;;;;;5016552;28;20029;-59
2023/05/10 16:10:38;;;;;;;4.78;3.38;;;;;;;;;;5015514;28;20040;-60
2023/05/10 16:13:35;;;;;;;3.95;3.47;;;;;;;;;;5001728;28;20073;-63
2023/05/10 16:16:40;;;;;;;3.80;2.95;;;;;;;;;;5000203;28;20029;-61
2023/05/10 16:19:47;;;;;;;3.65;3.15;;;;;;;;;;5007717;28;20064;-61
2023/05/10 16:22:47;;;;;;;4.68;3.22;;;;;;;;;;5014345;28;20132;-59
2023/05/10 16:25:46;;;;;;;4.15;2.97;;;;;;;;;;4993544;28;20038;-59
2023/05/10 16:28:45;;;;;;;4.20;3.58;;;;;;;;;;4989933;28;20037;-61
2023/05/10 16:31:43;;;;;;;4.95;3.30;;;;;;;;;;5008492;28;20061;-64
2023/05/10 16:34:42;;;;;;;4.10;3.40;;;;;;;;;;5016822;28;20275;-62
2023/05/10 16:37:39;;;;;;;4.00;3.28;;;;;;;;;;5004761;28;20045;-58
2023/05/10 16:40:39;;;;;;;4.68;3.28;;;;;;;;;;4988745;28;20053;-65
2023/05/10 16:43:38;;;;;;;3.80;3.15;;;;;;;;;;5015265;28;20049;-61
2023/05/10 16:46:36;;;;;;;4.50;3.20;;;;;;;;;;5013363;28;20491;-63
2023/05/10 16:49:31;;;;;;;3.97;3.42;;;;;;;;;;4997440;28;20037;-62
2023/05/10 16:52:26;;;;;;;4.20;2.88;;;;;;;;;;4987388;28;20077;-61
2023/05/10 16:55:24;;;;;;;3.60;3.05;;;;;;;;;;5005111;28;20029;-62
2023/05/10 16:58:20;;;;;;;5.22;3.47;;;;;;;;;;5004738;28;20048;-60
2023/05/10 17:01:17;;;;;;;4.20;3.10;;;;;;;;;;5015074;28;20041;-60
2023/05/10 17:04:15;;;;;;;3.50;2.97;;;;;;;;;;4992491;28;20050;-61
2023/05/10 17:07:14;;;;;;;3.47;2.60;;;;;;;;;;4974821;28;20099;-59
2023/05/10 17:10:14;;;;;;;4.47;3.30;;;;;;;;;;4999094;28;20124;-58
2023/05/10 17:13:16;;;;;;;3.83;3.03;;;;;;;;;;5016782;28;20052;-61
2023/05/10 17:16:11;;;;;;;3.33;2.67;;;;;;;;;;5016747;28;20037;-58
2023/05/10 17:19:09;;;;;;;4.38;2.85;;;;;;;;;;4968902;28;20038;-60
2023/05/10 17:22:06;;;;;;;3.72;2.80;;;;;;;;;;5000378;28;20040;-59
2023/05/10 17:25:03;;;;;;;4.20;3.42;;;;;;;;;;5016283;28;20061;-62
2023/05/10 17:28:00;;;;;;;4.45;3.25;;;;;;;;;;4997085;28;20042;-57
2023/05/10 17:30:57;;;;;;;3.10;2.55;;;;;;;;;;4981440;28;20129;-62
2023/05/10 17:33:56;;;;;;;5.43;2.88;;;;;;;;;;4979589;28;20046;-62
2023/05/10 17:36:49;;;;;;;3.90;3.05;;;;;;;;;;4998539;28;20088;-62
2023/05/10 17:39:44;;;;;;;3.40;2.85;;;;;;;;;;5013831;28;20577;-61
2023/05/10 17:42:43;;;;;;;5.13;3.03;;;;;;;;;;4982788;28;20050;-62
2023/05/10 17:45:43;;;;;;;3.60;2.72;;;;;;;;;;4979359;28;20414;-61
2023/05/10 17:48:45;;;;;;;3.28;2.70;;;;;;;;;;4965461;28;20132;-61
2023/05/10 17:51:47;;;;;;;4.07;2.97;;;;;;;;;;4988281;28;20037;-58
2023/05/10 17:54:43;;;;;;;4.30;2.45;;;;;;;;;;4972802;28;20428;-61
2023/05/10 17:57:41;;;;;;;3.40;2.83;;;;;;;;;;4947071;28;20126;-60
2023/05/10 18:00:39;;;;;;;4.10;2.70;;;;;;;;;;4965440;28;20077;-61
2023/05/10 18:03:37;;;;;;;3.53;2.67;;;;;;;;;;4971933;28;20565;-62
2023/05/10 18:06:35;;;;;;;3.88;2.97;;;;;;;;;;4980082;28;20035;-61
2023/05/10 18:09:35;;;;;;;3.53;2.58;;;;;;;;;;4969072;28;20046;-61
2023/05/10 18:12:34;;;;;;;4.35;2.80;;;;;;;;;;4957366;28;20138;-60
2023/05/10 18:15:30;;;;;;;3.30;2.80;;;;;;;;;;4977872;28;20037;-58
2023/05/10 18:18:29;;;;;;;3.13;2.63;;;;;;;;;;4993071;28;20374;-59
2023/05/10 18:21:26;;;;;;;4.45;2.60;;;;;;;;;;4995953;28;20076;-59
2023/05/10 18:24:27;;;;;;;3.08;2.42;;;;;;;;;;4959812;28;20562;-62
2023/05/10 18:27:25;;;;;;;3.53;2.70;;;;;;;;;;4966229;28;20256;-62
2023/05/10 18:30:22;;;;;;;3.75;2.88;;;;;;;;;;4948899;28;20053;-63
2023/05/10 18:33:19;;;;;;;4.07;2.40;;;;;;;;;;4984979;28;20034;-61
2023/05/10 18:36:16;;;;;;;3.97;2.58;;;;;;;;;;4953542;28;20286;-61
2023/05/10 18:39:14;;;;;;;4.80;2.50;;;;;;;;;;4971497;28;20045;-59
2023/05/10 18:42:06;;;;;;;3.28;2.70;;;;;;;;;;4999007;28;20759;-63
2023/05/10 18:45:05;;;;;;;3.33;2.75;;;;;;;;;;4980553;28;20073;-59
2023/05/10 18:48:02;;;;;;;3.25;2.72;;;;;;;;;;4990838;28;20058;-60
2023/05/10 18:51:02;;;;;;;4.15;2.53;;;;;;;;;;4950276;28;20049;-59
2023/05/10 18:53:59;;;;;;;3.42;2.70;;;;;;;;;;4978330;28;20044;-60
2023/05/10 18:56:59;;;;;;;3.88;2.78;;;;;;;;;;5011624;28;20029;-62
2023/05/10 18:59:56;;;;;;;3.38;2.80;;;;;;;;;;5005822;28;20038;-61
2023/05/10 19:02:53;;;;;;;4.28;2.80;;;;;;;;;;4971202;28;20422;-64
2023/05/10 19:08:48;;;;;;;3.78;2.75;;;;;;;;;;4986792;28;20038;-60
2023/05/10 19:11:46;;;;;;;2.90;2.47;;;;;;;;;;4994599;28;20057;-59
2023/05/10 19:14:42;;;;;;;4.10;2.85;;;;;;;;;;5000788;28;20037;-58
2023/05/10 19:17:40;;;;;;;3.50;2.58;;;;;;;;;;5008882;28;20101;-61
2023/05/10 19:23:42;;;;;;;3.33;2.80;;;;;;;;;;4982558;28;20037;-61
2023/05/10 19:26:38;;;;;;;3.47;2.80;;;;;;;;;;4995290;28;20132;-58
2023/05/10 19:29:36;;;;;;;3.78;2.60;;;;;;;;;;4972069;28;20513;-60
2023/05/10 19:32:34;;;;;;;3.53;2.75;;;;;;;;;;5001897;28;20108;-61
2023/05/10 19:35:31;;;;;;;2.97;2.50;;;;;;;;;;4967775;28;20053;-62
2023/05/10 19:38:28;;;;;;;2.67;2.40;;;;;;;;;;4976776;28;20060;-60
2023/05/10 19:41:27;;;;;;;3.97;2.80;;;;;;;;;;4962733;28;20095;-58
2023/05/10 19:44:24;;;;;;;3.17;2.40;;;;;;;;;;4981212;28;20507;-60
2023/05/10 19:47:21;;;;;;;3.85;2.53;;;;;;;;;;4992807;28;20108;-61
2023/05/10 19:50:19;;;;;;;3.15;2.65;;;;;;;;;;4984320;28;20054;-61
2023/05/10 19:53:16;;;;;;;4.20;2.67;;;;;;;;;;4971359;28;20052;-63
2023/05/10 19:56:20;;;;;;;3.33;2.88;;;;;;;;;;4977588;28;20049;-60
2023/05/10 19:59:18;;;;;;;4.18;2.90;;;;;;;;;;4992239;28;20037;-60
2023/05/10 20:02:13;;;;;;;3.53;2.72;;;;;;;;;;4978603;28;20125;-59
2023/05/10 20:05:09;;;;;;;2.92;2.38;;;;;;;;;;4994962;28;20584;-62
2023/05/10 20:08:06;;;;;;;3.03;2.50;;;;;;;;;;5016783;28;20076;-62
2023/05/10 20:11:04;;;;;;;3.28;2.65;;;;;;;;;;4949985;28;20030;-59
2023/05/10 20:14:08;;;;;;;3.38;2.70;;;;;;;;;;4980019;28;20107;-61
2023/05/10 20:17:04;;;;;;;2.92;2.58;;;;;;;;;;4999438;28;20109;-60
2023/05/10 20:20:00;;;;;;;3.65;2.65;;;;;;;;;;5016199;28;20953;-62
2023/05/10 20:23:01;;;;;;;4.72;2.92;;;;;;;;;;4982355;28;20034;-62
2023/05/10 20:26:01;;;;;;;3.65;2.50;;;;;;;;;;4998246;28;20497;-60
2023/05/10 20:32:08;;;;;;;3.22;2.45;;;;;;;;;;4999406;28;20029;-58
2023/05/10 20:35:05;;;;;;;3.03;2.28;;;;;;;;;;4961102;28;20039;-59
2023/05/10 20:38:01;;;;;;;3.75;2.80;;;;;;;;;;4975222;28;20049;-61
2023/05/10 20:40:56;;;;;;;4.25;2.78;;;;;;;;;;4982965;28;20470;-59
2023/05/10 20:43:59;;;;;;;3.40;2.47;;;;;;;;;;4994956;28;20398;-63
2023/05/10 20:46:58;;;;;;;3.13;2.53;;;;;;;;;;5005703;28;20094;-62
2023/05/10 20:49:57;;;;;;;3.03;2.45;;;;;;;;;;4986196;28;20053;-63
2023/05/10 20:52:56;;;;;;;3.00;2.40;;;;;;;;;;4973819;28;20130;-61
2023/05/10 20:55:53;;;;;;;3.22;2.55;;;;;;;;;;4981510;28;20061;-62
2023/05/10 20:58:50;;;;;;;3.60;2.58;;;;;;;;;;4979154;28;20077;-61
2023/05/10 21:01:44;;;;;;;3.00;2.70;;;;;;;;;;4978662;28;20050;-62
2023/05/10 21:04:45;;;;;;;2.95;2.33;;;;;;;;;;4986341;28;20077;-56
2023/05/10 21:07:42;;;;;;;3.55;2.78;;;;;;;;;;4992833;28;20061;-63
2023/05/10 21:10:40;;;;;;;3.63;2.43;;;;;;;;;;4990356;28;20328;-58
2023/05/10 21:13:38;;;;;;;2.45;2.15;;;;;;;;;;4965476;28;20312;-58
2023/05/10 21:16:34;;;;;;;3.63;3.00;;;;;;;;;;4965206;28;20039;-62
2023/05/10 21:19:30;;;;;;;2.88;2.45;;;;;;;;;;4976568;28;20078;-62
2023/05/10 21:22:28;;;;;;;3.78;2.70;;;;;;;;;;4967852;28;20049;-61
2023/05/10 21:25:26;;;;;;;3.05;2.58;;;;;;;;;;4951371;28;20069;-60
2023/05/10 21:28:25;;;;;;;2.95;2.30;;;;;;;;;;4973409;28;20081;-61
2023/05/10 21:31:23;;;;;;;3.63;2.75;;;;;;;;;;4973305;28;20049;-61
2023/05/10 21:34:20;;;;;;;2.83;2.45;;;;;;;;;;4973930;28;20113;-60
2023/05/10 21:37:18;;;;;;;4.53;2.60;;;;;;;;;;4965181;28;20442;-62
2023/05/10 21:40:13;;;;;;;2.67;2.47;;;;;;;;;;4975423;28;20495;-61
2023/05/10 21:43:14;;;;;;;3.83;2.65;;;;;;;;;;4978089;28;20060;-62
2023/05/10 21:45:55;;;;;;;;;;;;;;;;;;4959602;28;20294;-59
2023/05/10 21:48:56;;;;;;;3.90;2.40;;;;;;;;;;4998529;28;20043;-58
2023/05/10 21:51:37;;;;;;;;;;;;;;;;;;4978866;28;20569;-61
2023/05/10 22:00:42;;;;;;;3.28;2.67;;;;;;;;;;4968909;28;20052;-62
2023/05/10 22:03:51;;;;;;;2.83;2.47;;;;;;;;;;5016647;28;20107;-62
2023/05/10 22:16:39;;;;;;;3.33;2.58;;;;;;;;;;4974453;28;20127;-62
2023/05/10 22:26:23;;;;;;;2.92;2.63;;;;;;;;;;4996762;28;20858;-63
2023/05/10 22:29:45;;;;;;;3.47;2.50;;;;;;;;;;4981354;28;20503;-62
2023/05/10 22:39:45;;;;;;;2.90;2.60;;;;;;;;;;5007619;28;20107;-61
2023/05/10 22:43:17;;;;;;;3.05;2.40;;;;;;;;;;4975186;28;20066;-63
2023/05/10 22:49:42;;;;;;;3.25;2.50;;;;;;;;;;5010306;28;20056;-57
2023/05/10 22:53:03;;;;;;;3.25;2.75;;;;;;;;;;4982499;28;20116;-61
2023/05/10 23:15:49;;;;;;;2.65;2.45;;;;;;;;;;4977272;28;20800;-61
2023/05/10 23:31:50;;;;;;;3.53;2.70;;;;;;;;;;4969246;28;20155;-60
2023/05/10 23:38:12;;;;;;;3.25;2.47;;;;;;;;;;5007753;28;20137;-60
